CheckWX is a tool to help pilots better visualize weather data.  It is not intended as a substitute for an official pre-flight weather briefing.

01:15:08 UTC

UCFL TAF
Tamchy Airport
Tamchy
TAF UCFL 232242Z 2400/2409 34003G08MPS 9999 SCT030CB BKN100 BECMG 2405/2406 14003G08MPS

Feb-24@
00:00 UTC

Feb-24 @ 00:00 UTC

Feb-24@
05:00 UTC

Feb-24 @ 05:00 UTC

TAF UCFL 232242Z 2400/2409 34003G08MPS 9999 SCT030CB BKN100
Wind
  • 340° at 6 KTS
  • {Gusting to 16 KTS
Cloud Levels
  • Scattered at 3,000' AGL
  • Broken at 10,000' AGL

Feb-24@
05:00 UTC

Feb-24 @ 05:00 UTC

Feb-24@
09:00 UTC

Feb-24 @ 09:00 UTC

BECMG 2405/2406 14003G08MPS

Becoming

Becoming Conditions expected by Sun, Feb 24, 2019 @ 06:00 UTC

Wind
  • 140° at 6 KTS
  • {Gusting to 16 KTS
Cloud Levels
  • Scattered at 3,000' AGL
  • Broken at 10,000' AGL